Time;durP1;ratioP1;P1;durP2;ratioP2;P2;SDS_P1;SDS_P2;PMS_P1;PMS_P2;Temp;Humidity;BMP_temperature;BMP_pressure;BME280_temperature;BME280_humidity;BME280_pressure;Samples;Min_cycle;Max_cycle;Signal;HPM_P1;HPM_P2
2021/03/28 00:01:08;;;;;;;15.65;4.10;;;4.00;99.90;;;;;;5081297;28;20032;-47
2021/03/28 00:03:56;;;;;;;13.55;3.83;;;4.00;99.90;;;;;;5086205;28;20112;-46
2021/03/28 00:06:30;;;;;;;16.88;4.30;;;4.00;99.90;;;;;;5085496;28;20107;-46
2021/03/28 00:09:22;;;;;;;14.18;4.10;;;4.00;99.90;;;;;;5086162;28;20138;-45
2021/03/28 00:11:58;;;;;;;21.75;4.90;;;3.90;99.90;;;;;;5086319;28;20092;-45
2021/03/28 00:14:41;;;;;;;18.20;5.03;;;3.80;99.90;;;;;;5086111;28;20028;-46
2021/03/28 00:17:30;;;;;;;18.95;4.90;;;3.80;99.90;;;;;;5085504;28;20156;-45
2021/03/28 00:20:04;;;;;;;14.05;4.50;;;3.80;99.90;;;;;;5085854;28;20298;-45
2021/03/28 00:22:47;;;;;;;19.20;5.72;;;3.80;99.90;;;;;;5086283;28;20446;-45
2021/03/28 00:25:41;;;;;;;15.10;4.47;;;3.80;99.90;;;;;;5085345;28;20024;-45
2021/03/28 00:28:23;;;;;;;12.45;5.55;;;3.70;99.90;;;;;;5086252;28;20034;-45
2021/03/28 00:30:49;;;;;;;16.50;5.00;;;3.70;99.90;;;;;;5085981;28;20118;-44
2021/03/28 00:33:26;;;;;;;14.70;5.60;;;3.60;99.90;;;;;;5085887;28;20024;-45
2021/03/28 00:36:01;;;;;;;14.75;5.20;;;3.60;99.90;;;;;;5085253;28;20138;-46
2021/03/28 00:38:38;;;;;;;16.17;4.65;;;3.60;99.90;;;;;;5086117;28;20058;-44
2021/03/28 00:41:10;;;;;;;15.30;5.78;;;3.60;99.90;;;;;;5086224;28;20081;-44
2021/03/28 00:43:47;;;;;;;18.13;5.50;;;3.60;99.90;;;;;;5085882;28;20053;-45
2021/03/28 00:46:34;;;;;;;12.35;4.60;;;3.60;99.90;;;;;;5088000;28;20522;-45
2021/03/28 00:49:00;;;;;;;15.50;5.20;;;3.60;99.90;;;;;;5084566;28;20020;-45
2021/03/28 00:51:27;;;;;;;20.98;5.22;;;3.50;99.90;;;;;;5069096;28;20191;-47
2021/03/28 00:53:55;;;;;;;18.48;5.75;;;3.50;99.90;;;;;;5070621;28;20024;-45
2021/03/28 00:56:26;;;;;;;11.75;4.78;;;3.50;99.90;;;;;;5088418;28;20024;-44
2021/03/28 00:59:01;;;;;;;17.95;5.60;;;3.40;99.90;;;;;;5088173;28;20258;-44
2021/03/28 01:02:03;;;;;;;16.48;5.00;;;3.40;99.90;;;;;;5086989;28;20028;-46
2021/03/28 01:04:37;;;;;;;15.85;5.35;;;3.40;99.90;;;;;;5088753;28;20048;-46
2021/03/28 01:07:30;;;;;;;15.45;5.60;;;3.40;99.90;;;;;;5088575;28;20397;-44
2021/03/28 01:10:34;;;;;;;18.95;6.15;;;3.50;99.90;;;;;;5070994;28;20027;-46
2021/03/28 01:13:32;;;;;;;17.65;5.90;;;3.50;99.90;;;;;;5089120;28;20453;-44
2021/03/28 01:16:36;;;;;;;15.15;4.90;;;3.50;99.90;;;;;;5088372;28;20244;-45
2021/03/28 01:19:45;;;;;;;15.65;5.10;;;3.50;99.90;;;;;;5068513;28;20135;-44
2021/03/28 01:22:28;;;;;;;11.13;5.57;;;3.50;99.90;;;;;;5069130;28;20237;-43
2021/03/28 01:25:21;;;;;;;21.75;6.60;;;3.50;99.90;;;;;;5067908;28;20028;-44
2021/03/28 01:27:59;;;;;;;18.98;5.50;;;3.50;99.90;;;;;;5026683;28;20083;-44
2021/03/28 01:30:41;;;;;;;16.27;5.50;;;3.50;99.90;;;;;;5082360;28;20441;-45
2021/03/28 01:33:32;;;;;;;17.25;5.53;;;3.50;99.90;;;;;;5088452;28;20481;-44
2021/03/28 01:36:09;;;;;;;20.00;6.45;;;3.50;99.90;;;;;;5036173;28;20040;-45
2021/03/28 01:38:39;;;;;;;20.98;5.57;;;3.50;99.90;;;;;;5088825;28;20028;-45
2021/03/28 01:41:30;;;;;;;17.33;5.20;;;3.50;99.90;;;;;;5088653;28;20020;-45
2021/03/28 01:44:16;;;;;;;12.80;4.90;;;3.40;99.90;;;;;;5088371;28;20035;-44
2021/03/28 01:47:08;;;;;;;18.98;5.10;;;3.40;99.90;;;;;;5087716;28;20024;-44
2021/03/28 01:49:53;;;;;;;16.75;5.00;;;3.40;99.90;;;;;;5081062;28;20028;-44
2021/03/28 01:52:41;;;;;;;21.40;5.28;;;3.40;99.90;;;;;;5070007;28;20043;-45
2021/03/28 01:55:22;;;;;;;14.70;5.82;;;3.40;99.90;;;;;;5067378;28;20028;-44
2021/03/28 01:58:02;;;;;;;;;;;3.40;99.90;;;;;;5068596;28;20123;-43
2021/03/28 02:00:44;;;;;;;16.08;5.07;;;3.40;99.90;;;;;;5082099;28;19904;-45
2021/03/28 02:03:35;;;;;;;14.50;4.93;;;3.40;99.90;;;;;;5087756;28;20395;-45
2021/03/28 02:06:25;;;;;;;24.40;5.68;;;3.40;99.90;;;;;;5087299;28;20120;-44
2021/03/28 02:09:03;;;;;;;17.42;6.00;;;3.40;99.90;;;;;;5067736;28;20252;-44
2021/03/28 02:11:59;;;;;;;16.92;6.10;;;3.40;99.90;;;;;;5067536;28;20064;-45
2021/03/28 02:14:54;;;;;;;20.88;6.32;;;3.50;99.90;;;;;;5067672;28;20027;-45
2021/03/28 02:17:30;;;;;;;16.58;5.68;;;3.50;99.90;;;;;;5067400;28;20036;-44
2021/03/28 02:20:05;;;;;;;15.98;4.60;;;3.60;99.90;;;;;;5067324;28;20028;-44
2021/03/28 02:22:47;;;;;;;17.10;4.93;;;3.60;99.90;;;;;;5066819;28;20029;-47
2021/03/28 02:25:21;;;;;;;14.68;4.53;;;3.60;99.90;;;;;;5066331;28;20382;-44
2021/03/28 02:27:55;;;;;;;14.85;5.45;;;3.60;99.90;;;;;;5067500;28;20390;-46
2021/03/28 02:30:28;;;;;;;18.23;5.07;;;3.60;99.90;;;;;;5080602;28;20278;-46
2021/03/28 02:33:07;;;;;;;12.25;5.43;;;3.70;99.90;;;;;;5087309;28;20420;-45
2021/03/28 02:35:48;;;;;;;13.48;5.38;;;3.60;99.90;;;;;;5086601;28;20051;-44
2021/03/28 02:38:52;;;;;;;14.50;5.68;;;3.70;99.90;;;;;;5087509;28;20026;-46
2021/03/28 02:41:41;;;;;;;13.35;4.90;;;3.70;99.90;;;;;;5087381;28;20106;-44
2021/03/28 02:44:32;;;;;;;15.05;4.97;;;3.70;99.90;;;;;;5083577;28;20063;-44
2021/03/28 02:47:36;;;;;;;15.50;5.53;;;3.70;99.90;;;;;;5086659;28;20437;-44
2021/03/28 02:50:20;;;;;;;22.33;5.45;;;3.70;99.90;;;;;;5076167;28;20089;-44
2021/03/28 02:53:18;;;;;;;13.75;4.63;;;3.80;99.90;;;;;;5085574;28;20101;-44
2021/03/28 02:56:08;;;;;;;23.15;5.18;;;3.80;99.90;;;;;;5086621;28;20036;-44
2021/03/28 02:58:36;;;;;;;17.70;5.63;;;3.80;99.90;;;;;;5087169;28;20200;-43
2021/03/28 03:01:14;;;;;;;18.90;6.10;;;3.80;99.90;;;;;;5087043;28;20685;-43
2021/03/28 03:04:17;;;;;;;16.92;5.55;;;3.80;99.90;;;;;;5086699;28;20091;-44
2021/03/28 03:06:46;;;;;;;15.15;5.13;;;3.90;99.90;;;;;;5085771;28;20028;-44
2021/03/28 03:09:34;;;;;;;13.70;5.22;;;3.80;99.90;;;;;;5086377;28;20028;-44
2021/03/28 03:12:31;;;;;;;20.85;6.32;;;3.80;99.90;;;;;;5086937;28;20031;-45
2021/03/28 03:15:36;;;;;;;14.50;5.63;;;3.80;99.90;;;;;;5085261;28;20039;-44
2021/03/28 03:18:27;;;;;;;12.45;4.85;;;3.90;99.90;;;;;;5040800;28;20040;-44
2021/03/28 03:21:24;;;;;;;12.00;4.57;;;3.80;99.90;;;;;;5085824;28;20571;-45
2021/03/28 03:24:15;;;;;;;17.88;5.63;;;3.80;99.90;;;;;;5078388;28;20269;-43
2021/03/28 03:26:49;;;;;;;15.32;5.15;;;3.80;99.90;;;;;;5092679;28;20024;-45
2021/03/28 03:29:44;;;;;;;13.77;5.18;;;3.80;99.90;;;;;;5068416;28;20435;-45
2021/03/28 03:32:31;;;;;;;12.40;5.40;;;3.80;99.90;;;;;;5066858;28;20405;-44
2021/03/28 03:35:12;;;;;;;9.95;4.15;;;3.80;99.90;;;;;;5082798;28;20016;-46
2021/03/28 03:38:16;;;;;;;24.08;5.38;;;3.80;99.90;;;;;;5091400;28;20031;-44
2021/03/28 03:40:52;;;;;;;13.18;5.07;;;3.80;99.90;;;;;;5054133;28;20119;-44
2021/03/28 03:43:49;;;;;;;15.77;5.40;;;3.80;99.90;;;;;;5085252;28;20381;-46
2021/03/28 03:46:36;;;;;;;17.17;5.78;;;3.90;99.90;;;;;;5080187;28;20028;-44
2021/03/28 03:49:35;;;;;;;14.90;4.82;;;3.90;99.90;;;;;;5082805;28;20034;-45
2021/03/28 03:52:38;;;;;;;14.70;5.10;;;3.90;99.90;;;;;;5083011;28;20499;-44
2021/03/28 03:55:12;;;;;;;28.90;5.90;;;3.80;99.90;;;;;;5082683;28;20032;-45
2021/03/28 03:57:48;;;;;;;19.67;5.82;;;3.90;99.90;;;;;;5078687;28;20117;-44
2021/03/28 04:00:29;;;;;;;15.88;5.38;;;3.90;99.90;;;;;;5086205;28;20024;-44
2021/03/28 04:03:17;;;;;;;15.68;5.45;;;4.00;99.90;;;;;;5086303;28;20059;-44
2021/03/28 04:06:20;;;;;;;16.55;4.93;;;4.00;99.90;;;;;;5084883;28;20424;-44
2021/03/28 04:08:51;;;;;;;20.33;5.15;;;4.00;99.90;;;;;;5086133;28;20032;-45
2021/03/28 04:11:29;;;;;;;15.20;4.82;;;4.00;99.90;;;;;;5085855;28;20038;-45
2021/03/28 04:13:55;;;;;;;24.38;5.47;;;4.10;99.90;;;;;;5085712;28;20042;-44
2021/03/28 04:16:59;;;;;;;10.63;4.55;;;4.00;99.90;;;;;;5085772;28;20493;-45
2021/03/28 04:19:43;;;;;;;16.70;5.13;;;4.00;99.90;;;;;;5086135;28;20024;-46
2021/03/28 04:22:36;;;;;;;12.75;4.00;;;4.00;99.90;;;;;;5090333;28;20446;-48
2021/03/28 04:25:09;;;;;;;15.25;5.15;;;3.90;99.90;;;;;;5089155;28;20028;-44
2021/03/28 04:27:59;;;;;;;12.73;4.85;;;3.90;99.90;;;;;;5071676;28;20027;-44
2021/03/28 04:30:59;;;;;;;14.13;4.55;;;3.90;99.90;;;;;;5089641;28;20043;-47
2021/03/28 04:33:47;;;;;;;10.02;4.82;;;3.90;99.90;;;;;;5089617;28;20103;-45
2021/03/28 04:36:28;;;;;;;15.88;4.28;;;3.90;99.90;;;;;;5088833;28;20216;-44
2021/03/28 04:39:38;;;;;;;22.13;5.32;;;4.00;99.90;;;;;;5071289;28;20077;-44
2021/03/28 04:42:37;;;;;;;11.57;4.07;;;4.00;99.90;;;;;;5089710;28;20028;-44
2021/03/28 04:45:23;;;;;;;14.63;4.22;;;4.00;99.90;;;;;;5091838;28;20023;-44
2021/03/28 04:48:21;;;;;;;20.50;4.25;;;4.10;99.90;;;;;;5109941;28;20451;-45
2021/03/28 04:50:59;;;;;;;19.83;4.35;;;4.10;99.90;;;;;;5109512;28;20020;-44
2021/03/28 04:54:01;;;;;;;13.63;4.28;;;4.10;99.90;;;;;;5089582;28;20028;-44
2021/03/28 04:56:48;;;;;;;16.35;4.13;;;4.10;99.90;;;;;;5068415;28;20056;-45
2021/03/28 04:59:44;;;;;;;10.88;3.85;;;4.20;99.90;;;;;;5072664;28;20034;-44
2021/03/28 05:02:49;;;;;;;19.30;4.70;;;4.20;99.90;;;;;;5089673;28;20488;-45
2021/03/28 05:05:52;;;;;;;13.63;3.40;;;4.30;99.90;;;;;;5088061;28;20119;-45
2021/03/28 05:08:29;;;;;;;15.05;4.53;;;4.30;99.90;;;;;;5088984;28;20024;-45
2021/03/28 05:11:12;;;;;;;14.68;4.47;;;4.30;99.90;;;;;;5089332;28;20031;-44
2021/03/28 05:13:47;;;;;;;16.48;5.45;;;4.30;99.90;;;;;;5070916;28;20513;-44
2021/03/28 05:17:00;;;;;;;22.60;4.75;;;4.30;99.90;;;;;;5086966;28;20123;-45
2021/03/28 05:19:47;;;;;;;9.32;3.65;;;4.30;99.90;;;;;;4997551;28;20608;-44
2021/03/28 05:22:46;;;;;;;13.32;4.18;;;4.30;99.90;;;;;;5089256;28;20008;-44
2021/03/28 05:25:39;;;;;;;13.10;4.07;;;4.30;99.90;;;;;;5070778;28;20035;-43
2021/03/28 05:28:23;;;;;;;17.98;4.30;;;4.40;99.90;;;;;;5091791;28;20106;-44
2021/03/28 05:30:52;;;;;;;14.23;4.15;;;4.30;99.90;;;;;;5091187;28;20078;-45
2021/03/28 05:33:48;;;;;;;15.40;4.15;;;4.40;99.90;;;;;;5088484;28;20202;-44
2021/03/28 05:37:04;;;;;;;18.98;4.03;;;4.40;99.90;;;;;;5087927;28;20017;-44
2021/03/28 05:39:57;;;;;;;18.35;4.82;;;4.40;99.90;;;;;;5044876;28;20036;-44
2021/03/28 05:42:57;;;;;;;9.30;3.95;;;4.40;99.90;;;;;;5088700;28;20016;-44
2021/03/28 05:45:50;;;;;;;12.40;3.47;;;4.50;99.90;;;;;;5087558;28;20024;-44
2021/03/28 05:48:22;;;;;;;11.95;3.25;;;4.50;99.90;;;;;;5088458;28;20393;-47
2021/03/28 05:51:13;;;;;;;13.93;3.78;;;4.50;99.90;;;;;;5081898;28;20067;-44
2021/03/28 05:54:09;;;;;;;15.77;3.58;;;4.60;99.90;;;;;;5083010;28;20028;-44
2021/03/28 05:57:16;;;;;;;14.00;3.60;;;4.70;99.90;;;;;;5080227;28;20028;-43
2021/03/28 06:00:11;;;;;;;17.40;3.90;;;4.70;99.90;;;;;;5086201;28;20462;-44
2021/03/28 06:02:52;;;;;;;32.28;3.85;;;4.80;99.90;;;;;;5071693;28;20417;-44
2021/03/28 06:05:32;;;;;;;;;;;4.80;99.90;;;;;;5081528;28;20055;-44
2021/03/28 06:08:40;;;;;;;13.80;3.22;;;4.90;99.90;;;;;;5082237;28;19915;-46
2021/03/28 06:11:25;;;;;;;13.75;3.05;;;5.00;99.90;;;;;;5087477;28;20142;-43
2021/03/28 06:14:19;;;;;;;11.75;3.65;;;5.10;99.90;;;;;;5087578;28;20057;-43
2021/03/28 06:17:03;;;;;;;9.10;4.20;;;5.10;99.90;;;;;;5086828;28;20032;-45
2021/03/28 06:20:10;;;;;;;16.75;3.78;;;5.10;99.90;;;;;;5087443;28;20020;-45
2021/03/28 06:22:54;;;;;;;8.73;3.70;;;5.20;99.90;;;;;;5088058;28;20099;-45
2021/03/28 06:26:02;;;;;;;10.25;3.38;;;5.30;99.90;;;;;;5086974;28;20031;-43
2021/03/28 06:28:49;;;;;;;12.20;3.20;;;5.40;99.90;;;;;;5087624;28;20432;-44
2021/03/28 06:31:29;;;;;;;13.60;3.53;;;5.50;99.90;;;;;;5045045;28;20274;-43
2021/03/28 06:34:37;;;;;;;11.68;3.45;;;5.40;99.90;;;;;;5066837;28;20489;-45
2021/03/28 06:37:28;;;;;;;11.70;3.60;;;5.40;99.90;;;;;;5066337;28;20065;-44
2021/03/28 06:40:11;;;;;;;;;;;5.50;99.90;;;;;;5067599;28;20028;-44
2021/03/28 06:43:08;;;;;;;12.50;3.60;;;5.60;99.90;;;;;;5066581;28;19931;-43
2021/03/28 06:46:12;;;;;;;20.85;5.07;;;5.60;99.90;;;;;;5066396;28;20031;-44
2021/03/28 06:49:02;;;;;;;17.50;4.13;;;5.70;99.90;;;;;;5067076;28;20036;-44
2021/03/28 06:51:49;;;;;;;15.70;4.05;;;5.90;99.90;;;;;;5048977;28;20028;-44
2021/03/28 06:54:36;;;;;;;10.90;3.83;;;5.90;99.90;;;;;;5068210;28;20111;-46
2021/03/28 06:57:14;;;;;;;15.00;4.10;;;5.90;99.90;;;;;;5081183;28;20021;-45
2021/03/28 07:00:02;;;;;;;15.65;3.88;;;6.00;99.90;;;;;;5099418;28;20084;-44
2021/03/28 07:03:04;;;;;;;9.95;4.47;;;6.10;99.90;;;;;;5068885;28;20259;-44
2021/03/28 07:05:37;;;;;;;14.48;5.15;;;6.20;99.90;;;;;;5086016;28;20456;-45
2021/03/28 07:08:17;;;;;;;19.73;5.32;;;6.30;99.90;;;;;;5086966;28;20119;-44
2021/03/28 07:11:21;;;;;;;13.95;4.75;;;6.30;99.90;;;;;;5086867;28;20038;-43
2021/03/28 07:13:52;;;;;;;14.52;4.20;;;6.40;99.90;;;;;;5021662;28;20218;-43
2021/03/28 07:16:45;;;;;;;18.92;4.95;;;6.50;99.90;;;;;;5067820;28;20016;-46
2021/03/28 07:19:37;;;;;;;14.80;4.18;;;6.40;99.90;;;;;;5086305;28;20025;-44
2021/03/28 07:22:08;;;;;;;18.98;5.07;;;6.30;99.90;;;;;;5086851;28;20042;-45
2021/03/28 07:25:11;;;;;;;19.02;4.82;;;6.40;99.90;;;;;;5086277;28;20020;-44
2021/03/28 07:28:00;;;;;;;10.73;4.55;;;6.50;99.90;;;;;;5086660;28;20482;-44
2021/03/28 07:30:57;;;;;;;18.95;4.63;;;6.60;99.90;;;;;;5082156;28;20678;-44
2021/03/28 07:34:00;;;;;;;16.83;4.78;;;6.70;99.90;;;;;;5086493;28;20117;-44
2021/03/28 07:36:49;;;;;;;13.13;4.45;;;6.80;99.90;;;;;;5085626;28;20028;-45
2021/03/28 07:39:51;;;;;;;13.77;4.53;;;6.80;99.90;;;;;;5045059;28;20111;-43
2021/03/28 07:42:45;;;;;;;15.00;4.68;;;6.90;99.90;;;;;;5086204;28;20016;-46
2021/03/28 07:45:27;;;;;;;20.52;5.63;;;7.10;99.90;;;;;;5077600;28;20494;-44
2021/03/28 07:48:10;;;;;;;10.50;4.78;;;7.20;99.90;;;;;;5082938;28;20030;-45
2021/03/28 07:51:18;;;;;;;15.70;4.55;;;7.40;99.90;;;;;;5088268;28;20089;-45
2021/03/28 07:54:27;;;;;;;11.13;4.32;;;7.60;99.90;;;;;;5103385;28;20442;-44
2021/03/28 07:57:30;;;;;;;13.23;4.93;;;7.90;99.90;;;;;;5088108;28;20032;-44
2021/03/28 08:00:09;;;;;;;11.05;4.40;;;8.10;99.90;;;;;;5078179;28;20115;-45
2021/03/28 08:03:13;;;;;;;13.35;3.95;;;8.20;99.90;;;;;;5086896;28;20027;-46
2021/03/28 08:06:17;;;;;;;16.50;3.97;;;8.40;99.90;;;;;;5066267;28;20040;-48
2021/03/28 08:09:08;;;;;;;10.13;4.20;;;8.50;99.90;;;;;;5072258;28;20028;-46
2021/03/28 08:11:55;;;;;;;9.55;3.75;;;8.60;99.90;;;;;;5072907;28;20032;-44
2021/03/28 08:14:51;;;;;;;9.35;3.42;;;8.80;99.90;;;;;;5090334;28;20050;-45
2021/03/28 08:18:15;;;;;;;10.00;3.50;;;9.20;99.90;;;;;;5071978;28;20406;-45
2021/03/28 08:21:00;;;;;;;11.07;3.20;;;9.20;99.90;;;;;;5058424;28;20032;-45
2021/03/28 08:24:03;;;;;;;11.38;3.28;;;9.20;99.90;;;;;;5090030;28;20764;-45
2021/03/28 08:26:40;;;;;;;15.55;3.10;;;9.10;99.90;;;;;;5094355;28;20469;-45
2021/03/28 08:29:34;;;;;;;10.80;3.42;;;9.20;99.90;;;;;;5092622;28;20290;-45
2021/03/28 08:32:25;;;;;;;10.32;3.08;;;9.30;99.90;;;;;;5084702;28;20089;-46
2021/03/28 08:35:06;;;;;;;9.57;4.00;;;9.40;99.90;;;;;;5102085;28;20016;-45
2021/03/28 08:38:17;;;;;;;8.07;2.85;;;9.50;99.90;;;;;;5091854;28;20036;-45
2021/03/28 08:41:19;;;;;;;7.80;3.00;;;9.70;99.90;;;;;;5110184;28;20019;-45
2021/03/28 08:44:04;;;;;;;9.45;2.78;;;9.70;99.90;;;;;;5109978;28;20027;-45
2021/03/28 08:46:54;;;;;;;10.57;3.22;;;9.70;99.90;;;;;;5109347;28;20024;-45
2021/03/28 08:49:59;;;;;;;11.32;3.13;;;9.80;99.90;;;;;;5109508;28;20109;-45
2021/03/28 08:53:01;;;;;;;16.48;3.10;;;9.70;99.90;;;;;;5109970;28;20085;-45
2021/03/28 08:56:04;;;;;;;9.52;3.20;;;9.80;99.90;;;;;;5090552;28;20034;-44
2021/03/28 08:58:38;;;;;;;13.63;3.67;;;9.80;99.90;;;;;;5089967;28;20028;-45
2021/03/28 09:01:08;;;;;;;10.60;4.43;;;9.80;99.90;;;;;;5089156;28;20094;-45
2021/03/28 09:03:58;;;;;;;12.63;3.70;;;9.70;99.90;;;;;;5089312;28;20016;-45
2021/03/28 09:06:48;;;;;;;10.45;3.30;;;9.60;99.90;;;;;;5087233;28;20028;-45
2021/03/28 09:09:34;;;;;;;21.52;3.97;;;9.60;99.90;;;;;;5089069;28;20434;-45
2021/03/28 09:12:40;;;;;;;11.20;3.05;;;9.80;99.90;;;;;;5088929;28;20062;-44
2021/03/28 09:15:41;;;;;;;13.75;3.30;;;9.90;99.90;;;;;;5087785;28;20024;-44
2021/03/28 09:18:15;;;;;;;8.18;3.40;;;10.20;99.90;;;;;;5078761;28;20024;-43
2021/03/28 09:21:09;;;;;;;15.93;3.40;;;10.50;99.90;;;;;;5091677;28;20051;-44
2021/03/28 09:23:41;;;;;;;9.98;3.33;;;10.60;99.70;;;;;;5096532;28;20088;-44
2021/03/28 09:26:27;;;;;;;10.23;3.45;;;10.80;98.50;;;;;;5108116;28;20477;-44
2021/03/28 09:29:12;;;;;;;16.55;4.38;;;10.80;98.40;;;;;;5107684;28;20102;-47
2021/03/28 09:32:05;;;;;;;10.82;3.55;;;11.10;98.40;;;;;;5069857;28;20524;-45
2021/03/28 09:35:07;;;;;;;12.98;3.30;;;11.40;98.30;;;;;;5088112;28;20107;-46
2021/03/28 09:37:54;;;;;;;15.05;3.28;;;11.40;96.70;;;;;;5087132;28;20485;-45
2021/03/28 09:40:25;;;;;;;12.60;3.53;;;11.50;95.80;;;;;;5088543;28;20034;-47
2021/03/28 09:43:12;;;;;;;10.50;3.00;;;11.20;95.50;;;;;;5088692;28;20531;-45
2021/03/28 09:45:51;;;;;;;11.55;3.05;;;11.00;96.50;;;;;;5087288;28;20036;-47
2021/03/28 09:48:54;;;;;;;8.90;2.78;;;11.10;96.70;;;;;;5088427;28;20032;-45
2021/03/28 09:52:02;;;;;;;8.32;3.08;;;11.40;96.70;;;;;;5069568;28;20443;-45
2021/03/28 09:54:58;;;;;;;7.65;3.05;;;11.70;94.70;;;;;;5087755;28;20024;-47
2021/03/28 09:57:55;;;;;;;15.00;3.58;;;12.20;94.40;;;;;;5085211;28;20032;-47
2021/03/28 10:00:53;;;;;;;11.43;2.92;;;13.10;91.30;;;;;;5083471;28;20020;-45
2021/03/28 10:03:26;;;;;;;10.93;3.95;;;13.90;86.60;;;;;;5084188;28;20473;-45
2021/03/28 10:06:04;;;;;;;11.13;3.65;;;14.40;79.30;;;;;;5083947;28;20020;-46
2021/03/28 10:08:40;;;;;;;8.98;3.10;;;14.80;77.40;;;;;;5088126;28;20081;-47
2021/03/28 10:11:10;;;;;;;7.82;2.80;;;14.40;77.40;;;;;;5087961;28;20483;-46
2021/03/28 10:13:56;;;;;;;7.47;2.83;;;15.40;75.00;;;;;;5087901;28;20060;-47
2021/03/28 10:16:30;;;;;;;8.63;3.75;;;16.50;73.00;;;;;;5086931;28;20044;-47
2021/03/28 10:19:10;;;;;;;11.75;3.45;;;17.20;64.40;;;;;;5087614;28;20028;-46
2021/03/28 10:21:43;;;;;;;10.05;3.78;;;17.20;65.20;;;;;;5069082;28;20036;-47
2021/03/28 10:24:51;;;;;;;9.95;3.25;;;16.90;62.70;;;;;;5069437;28;20549;-48
2021/03/28 10:27:48;;;;;;;12.40;3.30;;;15.10;67.10;;;;;;5087671;28;20028;-49
2021/03/28 10:30:28;;;;;;;11.40;3.65;;;14.60;70.10;;;;;;5045768;28;20040;-47
2021/03/28 10:33:13;;;;;;;10.30;3.28;;;14.40;72.40;;;;;;5067285;28;20553;-46
2021/03/28 10:35:54;;;;;;;10.65;3.65;;;14.30;71.60;;;;;;5066381;28;20032;-45
2021/03/28 10:38:27;;;;;;;8.32;3.17;;;13.70;73.10;;;;;;5067272;28;20048;-46
2021/03/28 10:41:08;;;;;;;8.85;2.83;;;13.30;75.10;;;;;;5080519;28;20119;-45
2021/03/28 10:44:10;;;;;;;8.35;3.00;;;13.10;77.00;;;;;;5084772;28;20028;-49
2021/03/28 10:47:12;;;;;;;10.20;3.20;;;12.80;78.00;;;;;;5083795;28;20066;-49
2021/03/28 10:49:44;;;;;;;9.80;3.78;;;12.80;80.70;;;;;;5086043;28;20039;-46
2021/03/28 10:52:24;;;;;;;10.30;3.67;;;12.70;81.00;;;;;;5084940;28;20028;-46
2021/03/28 10:55:01;;;;;;;8.75;2.97;;;12.30;79.90;;;;;;5067740;28;20027;-45
2021/03/28 10:58:00;;;;;;;9.85;2.80;;;12.00;83.50;;;;;;5084578;28;20054;-46
2021/03/28 11:00:48;;;;;;;10.40;2.95;;;12.10;83.50;;;;;;5077362;28;20024;-46
2021/03/28 11:03:51;;;;;;;11.90;3.28;;;12.10;85.20;;;;;;5066242;28;20031;-47
2021/03/28 11:06:54;;;;;;;15.63;3.45;;;11.90;83.70;;;;;;5067708;28;20096;-46
2021/03/28 11:09:57;;;;;;;14.05;3.15;;;11.90;86.30;;;;;;5086897;28;20460;-46
2021/03/28 11:12:40;;;;;;;11.05;2.90;;;11.90;85.70;;;;;;5086849;28;20032;-45
2021/03/28 11:15:16;;;;;;;12.18;3.47;;;12.00;86.40;;;;;;5065754;28;20043;-46
2021/03/28 11:18:15;;;;;;;7.72;2.83;;;11.90;87.10;;;;;;5085901;28;20393;-49
2021/03/28 11:20:55;;;;;;;10.43;3.83;;;11.90;88.50;;;;;;5067474;28;20034;-45
2021/03/28 11:23:55;;;;;;;10.20;3.50;;;11.90;87.90;;;;;;5085132;28;20501;-48
2021/03/28 11:26:42;;;;;;;11.40;3.47;;;12.10;90.00;;;;;;5064884;28;20036;-46
2021/03/28 11:29:45;;;;;;;9.25;2.90;;;12.80;87.20;;;;;;5070793;28;20016;-46
2021/03/28 11:32:37;;;;;;;8.63;3.38;;;13.20;85.80;;;;;;5085888;28;20040;-46
2021/03/28 11:35:11;;;;;;;11.63;2.75;;;13.40;81.00;;;;;;5094124;28;20020;-47
2021/03/28 11:38:13;;;;;;;6.28;2.67;;;13.60;80.10;;;;;;5105755;28;20035;-47
2021/03/28 11:40:40;;;;;;;11.35;3.45;;;14.00;80.40;;;;;;5105323;28;20027;-45
2021/03/28 11:43:08;;;;;;;12.30;3.08;;;15.20;74.40;;;;;;5105733;28;20034;-47
2021/03/28 11:45:46;;;;;;;14.85;4.03;;;16.00;69.70;;;;;;5092685;28;20028;-46
2021/03/28 11:48:23;;;;;;;9.30;2.83;;;16.10;65.80;;;;;;5085438;28;20128;-49
2021/03/28 11:50:49;;;;;;;8.43;3.25;;;16.60;65.00;;;;;;5084980;28;20119;-49
2021/03/28 11:53:36;;;;;;;11.82;3.22;;;17.00;66.00;;;;;;5085154;28;20047;-46
2021/03/28 11:56:03;;;;;;;7.32;3.20;;;17.80;60.80;;;;;;5084037;28;20035;-48
2021/03/28 11:58:38;;;;;;;10.13;3.45;;;18.10;60.40;;;;;;5089759;28;20023;-46
2021/03/28 12:01:05;;;;;;;9.52;3.22;;;18.70;57.40;;;;;;5080180;28;20043;-47
2021/03/28 12:03:40;;;;;;;10.48;3.17;;;18.00;56.60;;;;;;5073508;28;20024;-48
2021/03/28 12:06:11;;;;;;;10.40;3.17;;;17.40;60.20;;;;;;5063374;28;20025;-46
2021/03/28 12:08:46;;;;;;;8.82;3.70;;;17.80;58.90;;;;;;5063791;28;20040;-45
2021/03/28 12:11:33;;;;;;;12.75;3.67;;;18.10;57.60;;;;;;5079441;28;20146;-49
2021/03/28 12:14:14;;;;;;;8.68;2.85;;;18.10;59.50;;;;;;5084435;28;20515;-45
2021/03/28 12:17:10;;;;;;;7.28;2.88;;;18.40;57.10;;;;;;5083696;28;20038;-45
2021/03/28 12:19:59;;;;;;;7.38;2.92;;;18.80;55.70;;;;;;5085747;28;20066;-47
2021/03/28 12:22:37;;;;;;;12.48;3.90;;;17.70;55.00;;;;;;5064587;28;20027;-46
2021/03/28 12:25:18;;;;;;;8.13;3.38;;;17.20;57.80;;;;;;5084288;28;20025;-47
2021/03/28 12:27:47;;;;;;;11.05;4.53;;;16.70;59.50;;;;;;5067223;28;20131;-44
2021/03/28 12:30:28;;;;;;;12.68;5.13;;;16.40;59.10;;;;;;5084823;28;20046;-45
2021/03/28 12:33:12;;;;;;;;;;;15.90;59.10;;;;;;5085577;28;20377;-45
2021/03/28 12:35:46;;;;;;;9.27;3.15;;;15.30;60.80;;;;;;5083488;28;19966;-45
2021/03/28 12:38:27;;;;;;;8.10;3.17;;;14.70;63.20;;;;;;5085117;28;20083;-46
2021/03/28 12:41:25;;;;;;;10.00;3.22;;;14.60;65.90;;;;;;5085645;28;20035;-46
2021/03/28 12:44:05;;;;;;;6.70;3.25;;;14.30;65.80;;;;;;5087976;28;20025;-46
2021/03/28 12:46:31;;;;;;;7.78;3.75;;;14.20;67.10;;;;;;5088175;28;20109;-46
2021/03/28 12:49:08;;;;;;;8.70;3.72;;;14.10;68.40;;;;;;5090090;28;20115;-44
2021/03/28 12:51:40;;;;;;;13.07;3.88;;;14.30;67.70;;;;;;5090508;28;20564;-46
2021/03/28 12:54:32;;;;;;;8.75;3.10;;;14.40;68.00;;;;;;5068229;28;20028;-45
2021/03/28 12:57:05;;;;;;;8.52;3.58;;;14.40;67.00;;;;;;5067203;28;20064;-45
2021/03/28 12:59:40;;;;;;;7.60;3.17;;;14.50;65.90;;;;;;5083114;28;20024;-46
2021/03/28 13:02:29;;;;;;;5.65;2.50;;;14.50;66.10;;;;;;5084484;28;20385;-45
2021/03/28 13:04:59;;;;;;;10.95;3.03;;;14.80;67.80;;;;;;5080119;28;20576;-46
2021/03/28 13:07:36;;;;;;;9.63;2.70;;;15.10;63.70;;;;;;5087595;28;20035;-46
2021/03/28 13:10:05;;;;;;;9.77;2.75;;;15.10;63.80;;;;;;5088133;28;20035;-45
2021/03/28 13:12:31;;;;;;;7.05;2.95;;;15.20;64.20;;;;;;5088028;28;20024;-49
2021/03/28 13:15:25;;;;;;;6.68;2.75;;;15.20;61.80;;;;;;5087519;28;20020;-46
2021/03/28 13:18:17;;;;;;;7.18;2.47;;;15.10;60.00;;;;;;5087760;28;20024;-48
2021/03/28 13:21:18;;;;;;;7.18;2.75;;;14.90;62.10;;;;;;5090085;28;20058;-49
2021/03/28 13:23:46;;;;;;;6.22;2.83;;;15.10;61.90;;;;;;5076670;28;20039;-47
2021/03/28 13:26:17;;;;;;;5.45;2.33;;;15.10;61.40;;;;;;5101162;28;20032;-46
2021/03/28 13:29:11;;;;;;;8.05;2.67;;;15.10;60.30;;;;;;5093465;28;20048;-47
2021/03/28 13:31:53;;;;;;;7.30;2.35;;;15.10;59.90;;;;;;5067781;28;20043;-47
2021/03/28 13:34:29;;;;;;;5.90;1.92;;;15.00;62.90;;;;;;5066350;28;20382;-47
2021/03/28 13:37:49;;;;;;;6.15;2.83;;;15.00;61.50;;;;;;5091793;28;20545;-45
2021/03/28 13:40:19;;;;;;;7.50;2.45;;;15.40;60.20;;;;;;5100018;28;20077;-44
2021/03/28 13:42:50;;;;;;;9.10;2.88;;;15.20;59.20;;;;;;5089509;28;20024;-45
2021/03/28 13:45:21;;;;;;;5.40;2.30;;;15.10;60.50;;;;;;5096304;28;20074;-45
2021/03/28 13:47:48;;;;;;;7.32;2.13;;;15.20;60.20;;;;;;5109571;28;20076;-47
2021/03/28 13:50:32;;;;;;;8.07;1.95;;;15.30;60.10;;;;;;5109930;28;20111;-46
2021/03/28 13:53:01;;;;;;;4.85;2.00;;;15.00;60.40;;;;;;5094553;28;20445;-45
2021/03/28 13:55:45;;;;;;;4.25;1.67;;;15.10;59.70;;;;;;5099497;28;20038;-46
2021/03/28 13:58:36;;;;;;;5.43;2.53;;;15.10;59.70;;;;;;5100484;28;20016;-44
2021/03/28 14:01:25;;;;;;;6.65;2.80;;;15.00;60.10;;;;;;5098826;28;20469;-46
2021/03/28 14:03:55;;;;;;;7.45;2.53;;;14.70;60.60;;;;;;5099790;28;20157;-44
2021/03/28 14:06:30;;;;;;;6.47;2.25;;;14.60;62.50;;;;;;5097993;28;20035;-45
2021/03/28 14:09:05;;;;;;;7.25;2.30;;;14.60;62.00;;;;;;5096015;28;20111;-45
2021/03/28 14:11:42;;;;;;;6.63;1.80;;;14.70;62.30;;;;;;5097420;28;20012;-45
2021/03/28 14:14:25;;;;;;;7.07;2.53;;;14.80;62.70;;;;;;5095234;28;20031;-47
2021/03/28 14:16:52;;;;;;;12.55;2.70;;;14.70;61.30;;;;;;5083546;28;20020;-45
2021/03/28 14:19:25;;;;;;;5.25;2.20;;;14.70;61.70;;;;;;5089235;28;20047;-45
2021/03/28 14:21:51;;;;;;;7.47;2.20;;;14.70;61.30;;;;;;5095759;28;20019;-45
2021/03/28 14:24:20;;;;;;;6.47;2.00;;;14.60;62.20;;;;;;5078014;28;20438;-45
2021/03/28 14:26:54;;;;;;;9.35;2.67;;;14.50;62.60;;;;;;5098203;28;20023;-46